VLG7NX LEBL-LSGG
Flight info
| Callsign | VLG7NX |
|---|---|
| Flight time | N/A |
| Altitude | 38000 |
| Route | DALIN DCT PIVUS DCT DIBER DCT ADITA DCT MAXIR DCT LUSOL DCT BODRU DCT OKTET DCT IRMAR DCT KINES |
| Aircraft | A320/M-SDE3FGHIRWY/LB1 |
Departure
| Time | 2026-05-03 20:15 |
|---|---|
| Airport | Josep Tarradellas Barcelona-El Prat Airport (LEBL) |
Arrival
| Time | N/A |
|---|---|
| Airport | Geneva International Airport (LSGG) |
| Time | Latitude | Longitude | Altitude | Speed | Heading |
|---|---|---|---|---|---|
| 2026-05-03 20:15 | 41.46046 | 2.37319 | 6396 ft | 286 kts | 48° |
| 2026-05-03 20:15 | 41.47408 | 2.39281 | 7254 ft | 291 kts | 47° |
| 2026-05-03 20:15 | 41.48798 | 2.41282 | 8106 ft | 296 kts | 47° |
| 2026-05-03 20:15 | 41.50204 | 2.43314 | 8955 ft | 301 kts | 48° |
| 2026-05-03 20:16 | 41.51398 | 2.45650 | 9788 ft | 307 kts | 65° |
| 2026-05-03 20:16 | 41.52061 | 2.48374 | 10513 ft | 314 kts | 82° |
| 2026-05-03 20:16 | 41.52159 | 2.51371 | 10808 ft | 335 kts | 95° |
| 2026-05-03 20:16 | 41.52033 | 2.54526 | 11265 ft | 350 kts | 95° |
| 2026-05-03 20:17 | 41.51898 | 2.57799 | 11976 ft | 356 kts | 95° |
| 2026-05-03 20:17 | 41.51763 | 2.61123 | 12725 ft | 361 kts | 96° |
| 2026-05-03 20:17 | 41.51628 | 2.64490 | 13477 ft | 366 kts | 96° |
| 2026-05-03 20:17 | 41.51492 | 2.67898 | 14168 ft | 370 kts | 96° |
| 2026-05-03 20:18 | 41.51357 | 2.71351 | 14834 ft | 374 kts | 95° |
| 2026-05-03 20:18 | 41.51303 | 2.74848 | 15476 ft | 380 kts | 88° |
| 2026-05-03 20:18 | 41.51711 | 2.78366 | 16130 ft | 387 kts | 76° |
| 2026-05-03 20:18 | 41.52633 | 2.81752 | 16771 ft | 392 kts | 64° |
| 2026-05-03 20:19 | 41.53936 | 2.84976 | 17435 ft | 396 kts | 61° |
| 2026-05-03 20:19 | 41.55268 | 2.88215 | 18079 ft | 400 kts | 62° |
| 2026-05-03 20:19 | 41.56605 | 2.91497 | 18656 ft | 404 kts | 62° |
| 2026-05-03 20:19 | 41.57951 | 2.94814 | 19216 ft | 408 kts | 62° |
| 2026-05-03 20:20 | 41.59309 | 2.98163 | 19787 ft | 411 kts | 62° |
| 2026-05-03 20:20 | 41.60679 | 3.01545 | 20349 ft | 415 kts | 62° |
| 2026-05-03 20:20 | 41.62041 | 3.04907 | 20908 ft | 418 kts | 62° |
| 2026-05-03 20:20 | 41.63446 | 3.08385 | 21512 ft | 421 kts | 62° |
| 2026-05-03 20:21 | 41.64840 | 3.11838 | 22097 ft | 423 kts | 62° |
| 2026-05-03 20:21 | 41.66221 | 3.15262 | 22655 ft | 426 kts | 62° |
| 2026-05-03 20:21 | 41.67637 | 3.18772 | 23212 ft | 430 kts | 62° |
| 2026-05-03 20:21 | 41.69008 | 3.22344 | 23733 ft | 433 kts | 65° |
| 2026-05-03 20:22 | 41.70281 | 3.25987 | 24182 ft | 435 kts | 66° |
| 2026-05-03 20:22 | 41.71504 | 3.29728 | 24633 ft | 438 kts | 68° |
| 2026-05-03 20:22 | 41.72699 | 3.33484 | 25075 ft | 440 kts | 68° |
| 2026-05-03 20:22 | 41.73901 | 3.37264 | 25494 ft | 443 kts | 68° |
| 2026-05-03 20:23 | 41.75129 | 3.41065 | 25920 ft | 446 kts | 67° |
| 2026-05-03 20:23 | 41.76385 | 3.44883 | 26336 ft | 448 kts | 67° |
| 2026-05-03 20:23 | 41.77659 | 3.48711 | 26742 ft | 450 kts | 67° |
| 2026-05-03 20:23 | 41.78942 | 3.52544 | 27145 ft | 453 kts | 66° |
| 2026-05-03 20:24 | 41.80234 | 3.56404 | 27540 ft | 455 kts | 67° |
| 2026-05-03 20:24 | 41.81514 | 3.60246 | 27927 ft | 457 kts | 67° |
| 2026-05-03 20:24 | 41.82825 | 3.64203 | 28310 ft | 460 kts | 67° |
| 2026-05-03 20:24 | 41.84120 | 3.68126 | 28686 ft | 462 kts | 67° |
| 2026-05-03 20:25 | 41.85408 | 3.72038 | 29048 ft | 464 kts | 67° |
| 2026-05-03 20:25 | 41.86710 | 3.76002 | 29401 ft | 466 kts | 67° |
| 2026-05-03 20:25 | 41.88023 | 3.80005 | 29752 ft | 469 kts | 67° |
| 2026-05-03 20:25 | 41.89338 | 3.84017 | 30130 ft | 469 kts | 67° |
| 2026-05-03 20:26 | 41.90650 | 3.88032 | 30450 ft | 470 kts | 67° |
| 2026-05-03 20:26 | 41.91969 | 3.92060 | 30726 ft | 472 kts | 67° |
| 2026-05-03 20:26 | 41.93294 | 3.96108 | 30972 ft | 475 kts | 67° |
| 2026-05-03 20:26 | 41.94624 | 4.00183 | 31225 ft | 477 kts | 67° |
| 2026-05-03 20:27 | 41.95958 | 4.04273 | 31467 ft | 479 kts | 67° |
| 2026-05-03 20:27 | 41.97291 | 4.08366 | 31720 ft | 480 kts | 67° |
| 2026-05-03 20:27 | 41.98176 | 4.11090 | 31957 ft | 479 kts | 67° |
| 2026-05-03 20:27 | 41.99954 | 4.16586 | 32425 ft | 478 kts | 67° |
| 2026-05-03 20:28 | 42.01256 | 4.20626 | 32759 ft | 477 kts | 67° |
| 2026-05-03 20:28 | 42.02574 | 4.24712 | 33204 ft | 473 kts | 67° |
| 2026-05-03 20:28 | 42.03441 | 4.27397 | 33482 ft | 472 kts | 67° |
| 2026-05-03 20:28 | 42.05185 | 4.32809 | 33971 ft | 471 kts | 67° |
| 2026-05-03 20:29 | 42.06511 | 4.36836 | 34275 ft | 470 kts | 64° |
| 2026-05-03 20:29 | 42.08168 | 4.40631 | 34544 ft | 471 kts | 54° |
| 2026-05-03 20:29 | 42.10225 | 4.44057 | 34804 ft | 471 kts | 46° |
| 2026-05-03 20:29 | 42.12612 | 4.47081 | 35043 ft | 471 kts | 41° |
| 2026-05-03 20:30 | 42.15068 | 4.50025 | 35245 ft | 473 kts | 41° |
| 2026-05-03 20:30 | 42.17528 | 4.52974 | 35478 ft | 473 kts | 41° |
| 2026-05-03 20:30 | 42.19984 | 4.55924 | 35721 ft | 473 kts | 41° |
| 2026-05-03 20:30 | 42.22447 | 4.58889 | 35961 ft | 473 kts | 41° |
| 2026-05-03 20:31 | 42.24069 | 4.60845 | 36138 ft | 472 kts | 41° |
| 2026-05-03 20:31 | 42.27315 | 4.64768 | 36464 ft | 472 kts | 41° |
| 2026-05-03 20:31 | 42.28967 | 4.66771 | 36622 ft | 472 kts | 41° |
| 2026-05-03 20:31 | 42.32197 | 4.70688 | 36913 ft | 472 kts | 41° |
| 2026-05-03 20:32 | 42.34648 | 4.73662 | 37105 ft | 473 kts | 41° |
| 2026-05-03 20:32 | 42.37100 | 4.76643 | 37309 ft | 473 kts | 41° |
| 2026-05-03 20:32 | 42.38716 | 4.78610 | 37435 ft | 473 kts | 41° |
| 2026-05-03 20:32 | 42.41163 | 4.81592 | 37663 ft | 473 kts | 41° |
| 2026-05-03 20:33 | 42.43606 | 4.84570 | 37846 ft | 473 kts | 41° |
| 2026-05-03 20:33 | 42.46052 | 4.87550 | 38033 ft | 473 kts | 41° |
| 2026-05-03 20:33 | 42.48497 | 4.90531 | 38082 ft | 473 kts | 41° |
| 2026-05-03 20:34 | 42.53388 | 4.96500 | 38060 ft | 473 kts | 41° |
| 2026-05-03 20:34 | 42.58274 | 5.02486 | 38074 ft | 474 kts | 41° |
| 2026-05-03 20:35 | 42.63170 | 5.08503 | 38082 ft | 474 kts | 41° |
| 2026-05-03 20:35 | 42.68061 | 5.14519 | 38084 ft | 474 kts | 41° |
| 2026-05-03 20:36 | 42.72920 | 5.20502 | 38083 ft | 474 kts | 41° |
| 2026-05-03 20:36 | 42.77834 | 5.26577 | 38093 ft | 474 kts | 41° |
| 2026-05-03 20:37 | 42.82686 | 5.32604 | 38098 ft | 474 kts | 41° |
| 2026-05-03 20:37 | 42.87567 | 5.38654 | 38087 ft | 475 kts | 41° |
| 2026-05-03 20:38 | 42.92451 | 5.44727 | 38105 ft | 475 kts | 41° |
| 2026-05-03 20:38 | 42.97331 | 5.50820 | 38105 ft | 475 kts | 41° |
| 2026-05-03 20:39 | 43.02207 | 5.56923 | 38111 ft | 475 kts | 41° |
| 2026-05-03 20:39 | 43.07086 | 5.63029 | 38104 ft | 475 kts | 41° |
| 2026-05-03 20:40 | 43.11947 | 5.69121 | 38119 ft | 476 kts | 41° |
| 2026-05-03 20:40 | 43.16859 | 5.75293 | 38101 ft | 476 kts | 41° |
| 2026-05-03 20:41 | 43.21723 | 5.81429 | 38116 ft | 476 kts | 41° |
| 2026-05-03 20:41 | 43.26562 | 5.87556 | 38116 ft | 476 kts | 41° |
| 2026-05-03 20:42 | 43.31425 | 5.93726 | 38128 ft | 476 kts | 41° |
| 2026-05-03 20:42 | 43.36424 | 5.99689 | 38123 ft | 474 kts | 32° |
| 2026-05-03 20:43 | 43.42295 | 6.03602 | 38102 ft | 466 kts | 12° |
| 2026-05-03 20:43 | 43.48589 | 6.04947 | 38112 ft | 459 kts | 359° |
| 2026-05-03 20:44 | 43.54881 | 6.05568 | 38113 ft | 460 kts | 360° |
| 2026-05-03 20:44 | 43.61353 | 6.06241 | 38112 ft | 460 kts | 0° |
| 2026-05-03 20:45 | 43.67752 | 6.06902 | 38124 ft | 461 kts | 360° |
| 2026-05-03 20:45 | 43.74107 | 6.07586 | 38118 ft | 462 kts | 4° |
| 2026-05-03 20:46 | 43.80327 | 6.10010 | 38106 ft | 471 kts | 22° |
| 2026-05-03 20:46 | 43.86171 | 6.13994 | 38115 ft | 472 kts | 23° |
| 2026-05-03 20:47 | 43.92118 | 6.18044 | 38133 ft | 472 kts | 23° |
| 2026-05-03 20:47 | 43.98012 | 6.22057 | 38131 ft | 472 kts | 23° |
| 2026-05-03 20:48 | 44.03900 | 6.26094 | 38132 ft | 472 kts | 24° |
| 2026-05-03 20:48 | 44.09791 | 6.30153 | 38144 ft | 472 kts | 23° |
| 2026-05-03 20:49 | 44.15679 | 6.34206 | 38137 ft | 472 kts | 23° |
| 2026-05-03 20:49 | 44.21568 | 6.38263 | 38130 ft | 472 kts | 23° |
| 2026-05-03 20:50 | 44.27450 | 6.42321 | 38146 ft | 472 kts | 23° |
| 2026-05-03 20:50 | 44.33335 | 6.46395 | 38145 ft | 472 kts | 23° |
| 2026-05-03 20:51 | 44.39222 | 6.50488 | 38134 ft | 471 kts | 23° |
| 2026-05-03 20:51 | 44.45049 | 6.54549 | 38161 ft | 471 kts | 23° |
| 2026-05-03 20:52 | 44.50912 | 6.58637 | 38156 ft | 471 kts | 23° |
| 2026-05-03 20:52 | 44.56719 | 6.62684 | 38150 ft | 471 kts | 23° |
| 2026-05-03 20:53 | 44.62602 | 6.66796 | 38146 ft | 470 kts | 23° |
| 2026-05-03 20:53 | 44.68468 | 6.70910 | 38158 ft | 471 kts | 23° |
| 2026-05-03 20:54 | 44.74321 | 6.75030 | 38150 ft | 470 kts | 23° |
| 2026-05-03 20:54 | 44.80371 | 6.78107 | 38164 ft | 461 kts | 6° |
| 2026-05-03 20:54 | 44.83582 | 6.78679 | 38159 ft | 456 kts | 357° |
| 2026-05-03 20:55 | 44.89819 | 6.78389 | 38150 ft | 452 kts | 352° |
| 2026-05-03 20:55 | 44.96104 | 6.77973 | 38141 ft | 452 kts | 352° |
| 2026-05-03 20:56 | 45.02393 | 6.77566 | 37640 ft | 456 kts | 352° |
| 2026-05-03 20:56 | 45.05577 | 6.77355 | 36858 ft | 457 kts | 353° |
| 2026-05-03 20:56 | 45.08746 | 6.77148 | 36066 ft | 459 kts | 353° |
| 2026-05-03 20:57 | 45.11948 | 6.76938 | 35254 ft | 461 kts | 353° |
| 2026-05-03 20:57 | 45.15138 | 6.76731 | 34700 ft | 457 kts | 353° |
| 2026-05-03 20:57 | 45.18321 | 6.76522 | 34107 ft | 453 kts | 353° |
| 2026-05-03 20:57 | 45.21455 | 6.76314 | 33493 ft | 450 kts | 353° |
| 2026-05-03 20:58 | 45.24542 | 6.76110 | 32941 ft | 446 kts | 353° |
| 2026-05-03 20:58 | 45.27592 | 6.75906 | 32375 ft | 442 kts | 353° |
| 2026-05-03 20:58 | 45.30664 | 6.75701 | 31806 ft | 438 kts | 353° |
| 2026-05-03 20:58 | 45.33674 | 6.75376 | 31293 ft | 431 kts | 347° |
| 2026-05-03 20:59 | 45.36598 | 6.74611 | 30765 ft | 426 kts | 345° |
| 2026-05-03 20:59 | 45.39511 | 6.73818 | 30264 ft | 423 kts | 345° |
| 2026-05-03 20:59 | 45.42350 | 6.73042 | 29690 ft | 421 kts | 345° |
| 2026-05-03 20:59 | 45.45267 | 6.72247 | 29198 ft | 416 kts | 345° |
| 2026-05-03 21:00 | 45.48074 | 6.71484 | 28724 ft | 411 kts | 345° |
| 2026-05-03 21:00 | 45.48975 | 6.71238 | 28562 ft | 410 kts | 345° |
| 2026-05-03 21:00 | 45.53104 | 6.70113 | 27833 ft | 404 kts | 345° |
| 2026-05-03 21:00 | 45.55883 | 6.69374 | 27382 ft | 400 kts | 346° |
| 2026-05-03 21:01 | 45.58608 | 6.68667 | 26950 ft | 397 kts | 346° |
| 2026-05-03 21:01 | 45.61297 | 6.67978 | 26494 ft | 395 kts | 346° |
| 2026-05-03 21:01 | 45.63994 | 6.67290 | 26052 ft | 392 kts | 346° |
| 2026-05-03 21:01 | 45.66644 | 6.66614 | 25604 ft | 390 kts | 346° |
| 2026-05-03 21:02 | 45.69317 | 6.65927 | 25164 ft | 387 kts | 346° |
| 2026-05-03 21:02 | 45.71939 | 6.65245 | 24698 ft | 386 kts | 345° |
| 2026-05-03 21:02 | 45.74594 | 6.64548 | 24215 ft | 384 kts | 345° |
| 2026-05-03 21:02 | 45.77222 | 6.63850 | 23740 ft | 383 kts | 345° |
| 2026-05-03 21:03 | 45.79854 | 6.63140 | 23192 ft | 383 kts | 345° |
| 2026-05-03 21:03 | 45.82437 | 6.62439 | 22710 ft | 381 kts | 345° |
| 2026-05-03 21:03 | 45.85046 | 6.61731 | 22207 ft | 378 kts | 345° |
| 2026-05-03 21:03 | 45.87620 | 6.61031 | 21727 ft | 376 kts | 345° |
| 2026-05-03 21:04 | 45.89311 | 6.60570 | 21407 ft | 374 kts | 346° |